Wetterdaten: Woche 21.07.14 - 27.07.14 (KW30)
Datum Zeit Temp. A. Feuchte A. Luftdruck Regen Wind Richtung Sonnenschein ET UV Solar Taupunkt Windchill Windben
21.07.2014 00:00 21,8 C 69 % 1006,5 hPa 0,0 l/m 0,3 km/h (0 Bft) O 0,00 h 0,025 mm 0,0 UV-I 0 W/m 16,0 C 21,8 C 1,1 km/h (0 Bft)
21.07.2014 01:00 20,9 C 75 % 1006,5 hPa 0,0 l/m 0,6 km/h (0 Bft) S-SO 0,00 h 0,025 mm 0,0 UV-I 0 W/m 16,3 C 20,9 C 1,5 km/h (1 Bft)
21.07.2014 02:00 20,7 C 76 % 1006,5 hPa 0,0 l/m 0,4 km/h (0 Bft) S 0,00 h 0,025 mm 0,0 UV-I 0 W/m 16,4 C 20,7 C 1,4 km/h (1 Bft)
21.07.2014 03:00 20,1 C 80 % 1006,3 hPa 0,0 l/m 1,0 km/h (0 Bft) S-SO 0,00 h 0,025 mm 0,0 UV-I 0 W/m 16,6 C 20,1 C 2,2 km/h (1 Bft)
21.07.2014 04:00 19,4 C 83 % 1006,3 hPa 0,0 l/m 0,9 km/h (0 Bft) S 0,00 h 0,000 mm 0,0 UV-I 0 W/m 16,4 C 19,4 C 1,9 km/h (1 Bft)
21.07.2014 05:00 19,0 C 87 % 1006,9 hPa 0,0 l/m 3,1 km/h (1 Bft) W-SW 0,00 h 0,025 mm 0,0 UV-I 13 W/m 16,8 C 19,0 C 6,1 km/h (2 Bft)
21.07.2014 06:00 18,9 C 89 % 1006,7 hPa 0,0 l/m 0,6 km/h (0 Bft) S 0,70 h 0,000 mm 0,0 UV-I 61 W/m 17,1 C 18,9 C 1,4 km/h (1 Bft)
21.07.2014 07:00 19,9 C 87 % 1006,5 hPa 0,0 l/m 1,7 km/h (1 Bft) W 1,00 h 0,025 mm 0,7 UV-I 147 W/m 17,6 C 19,9 C 3,6 km/h (1 Bft)
21.07.2014 08:00 21,1 C 82 % 1006,3 hPa 0,0 l/m 3,2 km/h (1 Bft) W 1,00 h 0,102 mm 1,1 UV-I 183 W/m 17,9 C 21,1 C 5,2 km/h (1 Bft)
21.07.2014 09:00 21,5 C 81 % 1006,8 hPa 0,0 l/m 5,5 km/h (1 Bft) W-SW 1,00 h 0,127 mm 1,3 UV-I 183 W/m 18,1 C 21,4 C 8,7 km/h (2 Bft)
21.07.2014 10:00 20,3 C 87 % 1007,7 hPa 16,8 l/m 6,3 km/h (2 Bft) SW 0,33 h 0,127 mm 0,8 UV-I 58 W/m 18,1 C 20,0 C 10,0 km/h (2 Bft)
21.07.2014 11:00 19,2 C 94 % 1008,2 hPa 3,6 l/m 4,5 km/h (1 Bft) W-NW 0,27 h 0,051 mm 0,9 UV-I 59 W/m 18,3 C 19,0 C 7,0 km/h (2 Bft)
21.07.2014 12:00 20,0 C 94 % 1008,1 hPa 0,2 l/m 5,3 km/h (1 Bft) NW 1,00 h 0,025 mm 2,2 UV-I 241 W/m 19,0 C 19,9 C 8,6 km/h (2 Bft)
21.07.2014 13:00 22,2 C 86 % 1008,4 hPa 0,2 l/m 7,4 km/h (2 Bft) W-NW 1,00 h 0,152 mm 5,3 UV-I 606 W/m 19,7 C 21,7 C 11,7 km/h (2 Bft)
21.07.2014 14:00 23,4 C 78 % 1007,9 hPa 0,0 l/m 7,6 km/h (2 Bft) N-NW 1,00 h 0,381 mm 5,0 UV-I 574 W/m 19,3 C 23,0 C 11,6 km/h (2 Bft)
21.07.2014 15:00 23,4 C 77 % 1008,1 hPa 0,0 l/m 8,8 km/h (2 Bft) N-NW 1,00 h 0,381 mm 2,8 UV-I 331 W/m 19,1 C 22,7 C 13,3 km/h (3 Bft)
21.07.2014 16:00 23,2 C 76 % 1007,8 hPa 0,0 l/m 9,1 km/h (2 Bft) NW 1,00 h 0,229 mm 2,5 UV-I 344 W/m 18,7 C 22,4 C 14,0 km/h (3 Bft)
21.07.2014 17:00 23,4 C 73 % 1007,7 hPa 0,0 l/m 8,3 km/h (2 Bft) N-NW 1,00 h 0,254 mm 1,5 UV-I 240 W/m 18,2 C 22,8 C 12,3 km/h (3 Bft)
21.07.2014 18:00 23,4 C 73 % 1007,7 hPa 0,0 l/m 9,4 km/h (2 Bft) N 1,00 h 0,178 mm 0,8 UV-I 146 W/m 18,3 C 22,6 C 14,3 km/h (3 Bft)
21.07.2014 19:00 22,2 C 75 % 1008,1 hPa 0,0 l/m 11,6 km/h (2 Bft) N-NO 0,47 h 0,127 mm 0,0 UV-I 45 W/m 17,4 C 20,7 C 17,7 km/h (3 Bft)
21.07.2014 20:00 20,5 C 84 % 1008,1 hPa 0,0 l/m 10,2 km/h (2 Bft) N 0,00 h 0,076 mm 0,0 UV-I 5 W/m 17,7 C 19,2 C 14,7 km/h (3 Bft)
21.07.2014 21:00 20,1 C 87 % 1008,3 hPa 0,0 l/m 7,9 km/h (2 Bft) N 0,00 h 0,025 mm 0,0 UV-I 0 W/m 17,8 C 19,5 C 12,1 km/h (2 Bft)
21.07.2014 22:00 20,1 C 87 % 1008,6 hPa 0,0 l/m 5,7 km/h (1 Bft) N 0,00 h 0,003 mm 0,0 UV-I 0 W/m 17,8 C 19,8 C 8,9 km/h (2 Bft)
21.07.2014 23:00 19,5 C 91 % 1008,7 hPa 3,4 l/m 3,9 km/h (1 Bft) O-NO 0,00 h 0,025 mm 0,0 UV-I 0 W/m 17,9 C 19,4 C 7,0 km/h (2 Bft)
22.07.2014 00:00 18,5 C 94 % 1008,9 hPa 1,6 l/m 1,7 km/h (1 Bft) O-NO 0,00 h 0,000 mm 0,0 UV-I 0 W/m 17,5 C 18,5 C 4,4 km/h (1 Bft)
22.07.2014 01:00 18,1 C 94 % 1009,1 hPa 0,2 l/m 6,3 km/h (2 Bft) N-NO 0,00 h 0,000 mm 0,0 UV-I 0 W/m 17,1 C 17,7 C 9,7 km/h (2 Bft)
22.07.2014 02:00 17,6 C 96 % 1009,1 hPa 0,0 l/m 2,2 km/h (1 Bft) N-NO 0,00 h 0,000 mm 0,0 UV-I 0 W/m 16,9 C 17,6 C 4,5 km/h (1 Bft)
22.07.2014 03:00 17,5 C 96 % 1008,8 hPa 0,0 l/m 1,4 km/h (1 Bft) N-NW 0,00 h 0,000 mm 0,0 UV-I 0 W/m 16,8 C 17,5 C 3,3 km/h (1 Bft)
22.07.2014 04:00 17,4 C 96 % 1009,1 hPa 0,0 l/m 1,8 km/h (1 Bft) N 0,00 h 0,000 mm 0,0 UV-I 0 W/m 16,7 C 17,4 C 3,7 km/h (1 Bft)
22.07.2014 05:00 17,4 C 96 % 1009,6 hPa 0,2 l/m 0,9 km/h (0 Bft) N 0,00 h 0,000 mm 0,0 UV-I 5 W/m 16,8 C 17,4 C 2,1 km/h (1 Bft)
22.07.2014 06:00 17,7 C 96 % 1009,7 hPa 0,4 l/m 3,8 km/h (1 Bft) N-NO 0,00 h 0,000 mm 0,0 UV-I 9 W/m 17,1 C 17,6 C 7,0 km/h (2 Bft)
22.07.2014 07:00 18,1 C 96 % 1010,1 hPa 2,4 l/m 5,2 km/h (1 Bft) N-NO 0,22 h 0,000 mm 0,0 UV-I 31 W/m 17,5 C 18,0 C 8,3 km/h (2 Bft)
22.07.2014 08:00 19,2 C 95 % 1010,6 hPa 0,0 l/m 2,9 km/h (1 Bft) N-NO 1,00 h 0,025 mm 0,9 UV-I 168 W/m 18,5 C 19,2 C 5,0 km/h (1 Bft)
22.07.2014 09:00 20,7 C 91 % 1010,8 hPa 0,2 l/m 7,6 km/h (2 Bft) N-NO 1,00 h 0,102 mm 1,7 UV-I 303 W/m 19,1 C 20,1 C 11,5 km/h (2 Bft)
22.07.2014 10:00 21,0 C 88 % 1011,3 hPa 0,0 l/m 7,6 km/h (2 Bft) N-NO 1,00 h 0,178 mm 1,9 UV-I 210 W/m 19,0 C 20,3 C 12,5 km/h (3 Bft)
22.07.2014 11:00 22,6 C 81 % 1011,6 hPa 0,0 l/m 8,9 km/h (2 Bft) N-NO 1,00 h 0,127 mm 4,1 UV-I 513 W/m 19,2 C 21,8 C 15,1 km/h (3 Bft)
22.07.2014 12:00 23,7 C 73 % 1012,0 hPa 0,0 l/m 8,8 km/h (2 Bft) N-NO 1,00 h 0,330 mm 4,1 UV-I 503 W/m 18,5 C 23,0 C 15,7 km/h (3 Bft)
22.07.2014 13:00 24,7 C 63 % 1012,4 hPa 0,0 l/m 10,7 km/h (2 Bft) N-NO 1,00 h 0,330 mm 5,6 UV-I 680 W/m 17,0 C 23,7 C 17,9 km/h (3 Bft)
22.07.2014 14:00 26,6 C 50 % 1012,2 hPa 0,0 l/m 11,7 km/h (2 Bft) NO 1,00 h 0,483 mm 6,3 UV-I 810 W/m 15,1 C 25,7 C 20,1 km/h (4 Bft)
22.07.2014 15:00 26,9 C 45 % 1012,2 hPa 0,0 l/m 11,9 km/h (2 Bft) N-NO 1,00 h 0,584 mm 4,8 UV-I 670 W/m 14,0 C 26,0 C 20,4 km/h (4 Bft)
22.07.2014 16:00 26,5 C 47 % 1012,1 hPa 0,0 l/m 12,1 km/h (2 Bft) N-NO 1,00 h 0,533 mm 3,3 UV-I 539 W/m 14,1 C 25,5 C 19,6 km/h (3 Bft)
22.07.2014 17:00 26,1 C 46 % 1012,0 hPa 0,0 l/m 13,3 km/h (3 Bft) NO 1,00 h 0,432 mm 2,1 UV-I 422 W/m 13,5 C 24,9 C 20,7 km/h (4 Bft)
22.07.2014 18:00 24,8 C 49 % 1012,3 hPa 0,0 l/m 9,9 km/h (2 Bft) N-NO 1,00 h 0,381 mm 0,9 UV-I 97 W/m 13,4 C 23,9 C 16,5 km/h (3 Bft)
22.07.2014 19:00 23,6 C 53 % 1012,8 hPa 0,0 l/m 6,3 km/h (2 Bft) N-NO 0,48 h 0,152 mm 0,6 UV-I 49 W/m 13,6 C 23,3 C 10,1 km/h (2 Bft)
22.07.2014 20:00 22,8 C 57 % 1013,3 hPa 0,0 l/m 5,0 km/h (1 Bft) N-NO 0,13 h 0,076 mm 0,0 UV-I 26 W/m 13,9 C 22,8 C 8,3 km/h (2 Bft)
22.07.2014 21:00 21,3 C 62 % 1013,9 hPa 0,0 l/m 6,4 km/h (2 Bft) N 0,00 h 0,051 mm 0,0 UV-I 0 W/m 13,8 C 21,1 C 9,4 km/h (2 Bft)
22.07.2014 22:00 19,9 C 67 % 1014,4 hPa 0,0 l/m 7,4 km/h (2 Bft) N 0,00 h 0,051 mm 0,0 UV-I 0 W/m 13,6 C 19,4 C 10,7 km/h (2 Bft)
22.07.2014 23:00 18,6 C 74 % 1014,7 hPa 0,0 l/m 2,3 km/h (1 Bft) N 0,00 h 0,051 mm 0,0 UV-I 0 W/m 13,8 C 18,5 C 3,8 km/h (1 Bft)
23.07.2014 00:00 17,1 C 82 % 1014,7 hPa 0,0 l/m 0,0 km/h (0 Bft) N 0,00 h 0,025 mm 0,0 UV-I 0 W/m 14,0 C 17,1 C 0,0 km/h (0 Bft)
23.07.2014 01:00 16,0 C 87 % 1014,8 hPa 0,0 l/m 0,0 km/h (0 Bft) N 0,00 h 0,025 mm 0,0 UV-I 0 W/m 13,9 C 16,0 C 0,3 km/h (0 Bft)
23.07.2014 02:00 14,9 C 91 % 1014,8 hPa 0,0 l/m 0,0 km/h (0 Bft) N 0,00 h 0,000 mm 0,0 UV-I 0 W/m 13,4 C 14,9 C 0,0 km/h (0 Bft)
23.07.2014 03:00 14,3 C 93 % 1015,0 hPa 0,0 l/m 0,1 km/h (0 Bft) N-NO 0,00 h 0,000 mm 0,0 UV-I 0 W/m 13,1 C 14,3 C 0,5 km/h (0 Bft)
23.07.2014 04:00 13,6 C 94 % 1015,1 hPa 0,0 l/m 0,0 km/h (0 Bft) N 0,00 h 0,000 mm 0,0 UV-I 0 W/m 12,6 C 13,6 C 0,0 km/h (0 Bft)
23.07.2014 05:00 13,0 C 94 % 1015,3 hPa 0,0 l/m 0,1 km/h (0 Bft) SO 0,00 h 0,000 mm 0,0 UV-I 9 W/m 12,1 C 13,0 C 0,2 km/h (0 Bft)
23.07.2014 06:00 13,3 C 95 % 1015,4 hPa 0,0 l/m 0,1 km/h (0 Bft) O-SO 0,22 h 0,000 mm 0,0 UV-I 35 W/m 12,5 C 13,3 C 0,2 km/h (0 Bft)
23.07.2014 07:00 16,2 C 89 % 1015,5 hPa 0,0 l/m 0,1 km/h (0 Bft) W 1,00 h 0,025 mm 0,7 UV-I 177 W/m 14,3 C 16,2 C 0,8 km/h (0 Bft)
23.07.2014 08:00 20,7 C 70 % 1015,4 hPa 0,0 l/m 2,1 km/h (1 Bft) N 1,00 h 0,102 mm 1,5 UV-I 406 W/m 15,1 C 20,7 C 4,3 km/h (1 Bft)
23.07.2014 09:00 23,4 C 57 % 1015,3 hPa 0,0 l/m 6,7 km/h (2 Bft) O-NO 1,00 h 0,254 mm 2,8 UV-I 573 W/m 14,2 C 23,1 C 11,8 km/h (2 Bft)
23.07.2014 10:00 24,6 C 48 % 1015,2 hPa 0,0 l/m 7,2 km/h (2 Bft) O 1,00 h 0,406 mm 4,1 UV-I 718 W/m 12,8 C 24,2 C 13,9 km/h (3 Bft)
23.07.2014 11:00 25,3 C 48 % 1015,0 hPa 0,0 l/m 8,6 km/h (2 Bft) N-NO 1,00 h 0,508 mm 4,4 UV-I 674 W/m 13,4 C 24,8 C 14,2 km/h (3 Bft)
23.07.2014 12:00 25,8 C 45 % 1014,6 hPa 0,0 l/m 11,2 km/h (2 Bft) N-NO 1,00 h 0,508 mm 4,8 UV-I 626 W/m 12,8 C 24,8 C 17,6 km/h (3 Bft)
23.07.2014 13:00 25,4 C 46 % 1014,5 hPa 0,0 l/m 12,5 km/h (3 Bft) N-NO 1,00 h 0,483 mm 4,9 UV-I 647 W/m 13,0 C 24,2 C 19,9 km/h (4 Bft)
23.07.2014 14:00 26,1 C 43 % 1014,2 hPa 0,0 l/m 9,3 km/h (2 Bft) N 1,00 h 0,508 mm 4,9 UV-I 693 W/m 12,6 C 25,6 C 14,9 km/h (3 Bft)
23.07.2014 15:00 26,6 C 41 % 1013,6 hPa 0,0 l/m 9,0 km/h (2 Bft) N 1,00 h 0,508 mm 3,9 UV-I 610 W/m 12,0 C 26,0 C 14,2 km/h (3 Bft)
23.07.2014 16:00 25,1 C 46 % 1013,4 hPa 0,0 l/m 10,8 km/h (2 Bft) N-NO 1,00 h 0,483 mm 2,4 UV-I 419 W/m 12,5 C 24,2 C 16,1 km/h (3 Bft)
23.07.2014 17:00 25,5 C 44 % 1013,0 hPa 0,0 l/m 8,0 km/h (2 Bft) N 1,00 h 0,356 mm 2,0 UV-I 400 W/m 12,4 C 25,0 C 12,3 km/h (3 Bft)
23.07.2014 18:00 24,3 C 43 % 1013,0 hPa 0,0 l/m 10,3 km/h (2 Bft) N-NO 0,90 h 0,305 mm 0,9 UV-I 66 W/m 10,9 C 23,4 C 16,2 km/h (3 Bft)
23.07.2014 19:00 22,8 C 49 % 1013,4 hPa 0,0 l/m 12,2 km/h (2 Bft) N-NO 0,27 h 0,127 mm 0,6 UV-I 44 W/m 11,5 C 21,4 C 19,4 km/h (3 Bft)
23.07.2014 20:00 21,3 C 56 % 1013,3 hPa 0,0 l/m 5,6 km/h (1 Bft) N-NO 0,00 h 0,127 mm 0,0 UV-I 20 W/m 12,0 C 21,0 C 9,2 km/h (2 Bft)
23.07.2014 21:00 19,4 C 63 % 1013,4 hPa 0,0 l/m 1,4 km/h (1 Bft) N-NO 0,00 h 0,051 mm 0,0 UV-I 5 W/m 12,2 C 19,4 C 3,0 km/h (1 Bft)
23.07.2014 22:00 17,3 C 75 % 1013,5 hPa 0,0 l/m 0,2 km/h (0 Bft) O-NO 0,00 h 0,025 mm 0,0 UV-I 0 W/m 12,8 C 17,3 C 0,9 km/h (0 Bft)
23.07.2014 23:00 15,4 C 84 % 1013,5 hPa 0,0 l/m 0,7 km/h (0 Bft) O-NO 0,00 h 0,025 mm 0,0 UV-I 0 W/m 12,7 C 15,4 C 1,5 km/h (1 Bft)
24.07.2014 00:00 14,8 C 83 % 1013,5 hPa 0,0 l/m 0,4 km/h (0 Bft) NO 0,00 h 0,025 mm 0,0 UV-I 0 W/m 12,0 C 14,8 C 1,6 km/h (1 Bft)
24.07.2014 01:00 14,3 C 84 % 1013,2 hPa 0,0 l/m 0,6 km/h (0 Bft) N-NW 0,00 h 0,025 mm 0,0 UV-I 0 W/m 11,6 C 14,3 C 1,6 km/h (1 Bft)
24.07.2014 02:00 13,8 C 84 % 1012,9 hPa 0,0 l/m 2,0 km/h (1 Bft) N-NO 0,00 h 0,025 mm 0,0 UV-I 0 W/m 11,2 C 13,8 C 4,0 km/h (1 Bft)
24.07.2014 03:00 13,6 C 84 % 1012,6 hPa 0,0 l/m 3,3 km/h (1 Bft) N-NO 0,00 h 0,025 mm 0,0 UV-I 0 W/m 11,0 C 13,6 C 5,8 km/h (2 Bft)
24.07.2014 04:00 12,5 C 89 % 1012,5 hPa 0,0 l/m 0,3 km/h (0 Bft) O-NO 0,00 h 0,000 mm 0,0 UV-I 0 W/m 10,8 C 12,5 C 1,2 km/h (1 Bft)
24.07.2014 05:00 12,6 C 88 % 1012,5 hPa 0,0 l/m 0,6 km/h (0 Bft) NO 0,00 h 0,000 mm 0,0 UV-I 8 W/m 10,6 C 12,6 C 1,7 km/h (1 Bft)
24.07.2014 06:00 13,3 C 86 % 1012,6 hPa 0,0 l/m 1,1 km/h (1 Bft) NW 0,13 h 0,000 mm 0,0 UV-I 36 W/m 11,0 C 13,3 C 2,5 km/h (1 Bft)
24.07.2014 07:00 15,4 C 81 % 1012,6 hPa 0,0 l/m 3,0 km/h (1 Bft) N 0,63 h 0,025 mm 0,8 UV-I 143 W/m 12,1 C 15,4 C 4,9 km/h (1 Bft)
24.07.2014 08:00 18,4 C 68 % 1012,6 hPa 0,0 l/m 3,7 km/h (1 Bft) O 1,00 h 0,076 mm 1,5 UV-I 401 W/m 12,4 C 18,4 C 6,9 km/h (2 Bft)
24.07.2014 09:00 20,5 C 62 % 1012,3 hPa 0,0 l/m 4,3 km/h (1 Bft) O-NO 1,00 h 0,254 mm 2,6 UV-I 558 W/m 13,0 C 20,5 C 8,3 km/h (2 Bft)
24.07.2014 10:00 22,1 C 57 % 1012,0 hPa 0,0 l/m 6,2 km/h (2 Bft) N-NO 1,00 h 0,356 mm 3,6 UV-I 592 W/m 13,3 C 21,8 C 10,7 km/h (2 Bft)
24.07.2014 11:00 23,6 C 50 % 1011,8 hPa 0,0 l/m 7,8 km/h (2 Bft) N-NO 1,00 h 0,381 mm 4,9 UV-I 754 W/m 12,4 C 23,1 C 12,5 km/h (3 Bft)
24.07.2014 12:00 23,4 C 49 % 1011,8 hPa 0,0 l/m 6,4 km/h (2 Bft) N-NO 1,00 h 0,483 mm 4,0 UV-I 484 W/m 12,2 C 23,1 C 11,4 km/h (2 Bft)
24.07.2014 13:00 23,3 C 49 % 1011,7 hPa 0,0 l/m 6,2 km/h (2 Bft) NO 1,00 h 0,356 mm 4,6 UV-I 588 W/m 11,9 C 23,0 C 11,1 km/h (2 Bft)
24.07.2014 14:00 25,2 C 51 % 1011,5 hPa 0,0 l/m 16,4 km/h (3 Bft) N-NO 1,00 h 0,406 mm 5,9 UV-I 872 W/m 14,3 C 23,3 C 26,0 km/h (4 Bft)
24.07.2014 15:00 24,2 C 55 % 1011,7 hPa 0,0 l/m 13,2 km/h (3 Bft) N-NO 1,00 h 0,686 mm 4,9 UV-I 750 W/m 14,6 C 22,7 C 21,3 km/h (4 Bft)
24.07.2014 16:00 23,3 C 57 % 1011,4 hPa 0,0 l/m 11,8 km/h (2 Bft) N-NO 1,00 h 0,559 mm 2,9 UV-I 493 W/m 14,3 C 22,0 C 18,8 km/h (3 Bft)
24.07.2014 17:00 22,4 C 57 % 1011,1 hPa 0,0 l/m 8,5 km/h (2 Bft) N-NO 1,00 h 0,356 mm 1,8 UV-I 330 W/m 13,5 C 21,7 C 13,3 km/h (3 Bft)
24.07.2014 18:00 21,8 C 56 % 1011,1 hPa 0,0 l/m 11,3 km/h (2 Bft) N 0,98 h 0,254 mm 0,9 UV-I 66 W/m 12,5 C 20,4 C 16,3 km/h (3 Bft)
24.07.2014 19:00 20,5 C 63 % 1011,3 hPa 0,0 l/m 8,1 km/h (2 Bft) N-NO 0,00 h 0,127 mm 0,0 UV-I 38 W/m 13,2 C 19,8 C 12,6 km/h (3 Bft)
24.07.2014 20:00 18,9 C 68 % 1011,6 hPa 0,0 l/m 8,2 km/h (2 Bft) N-NO 0,00 h 0,076 mm 0,0 UV-I 15 W/m 12,8 C 18,1 C 12,7 km/h (3 Bft)
24.07.2014 21:00 17,1 C 77 % 1012,2 hPa 0,0 l/m 5,8 km/h (2 Bft) N 0,00 h 0,051 mm 0,0 UV-I 0 W/m 13,0 C 16,8 C 9,4 km/h (2 Bft)
24.07.2014 22:00 15,8 C 81 % 1012,5 hPa 0,0 l/m 1,3 km/h (1 Bft) N 0,00 h 0,025 mm 0,0 UV-I 0 W/m 12,7 C 15,8 C 3,0 km/h (1 Bft)
24.07.2014 23:00 14,9 C 86 % 1012,7 hPa 0,0 l/m 3,2 km/h (1 Bft) N 0,00 h 0,025 mm 0,0 UV-I 0 W/m 12,5 C 14,9 C 5,2 km/h (1 Bft)
25.07.2014 00:00 13,8 C 90 % 1012,6 hPa 0,0 l/m 0,1 km/h (0 Bft) N 0,00 h 0,025 mm 0,0 UV-I 0 W/m 12,2 C 13,8 C 0,8 km/h (0 Bft)
25.07.2014 01:00 13,3 C 91 % 1012,6 hPa 0,0 l/m 0,7 km/h (0 Bft) N 0,00 h 0,000 mm 0,0 UV-I 0 W/m 11,9 C 13,3 C 1,7 km/h (1 Bft)
25.07.2014 02:00 12,2 C 94 % 1012,5 hPa 0,0 l/m 0,0 km/h (0 Bft) O-NO 0,00 h 0,000 mm 0,0 UV-I 0 W/m 11,2 C 12,2 C 0,4 km/h (0 Bft)
25.07.2014 03:00 11,7 C 94 % 1012,5 hPa 0,0 l/m 0,0 km/h (0 Bft) N 0,00 h 0,000 mm 0,0 UV-I 0 W/m 10,9 C 11,7 C 0,2 km/h (0 Bft)
25.07.2014 04:00 11,4 C 95 % 1012,5 hPa 0,0 l/m 0,0 km/h (0 Bft) O 0,00 h 0,000 mm 0,0 UV-I 0 W/m 10,5 C 11,4 C 0,2 km/h (0 Bft)
25.07.2014 05:00 11,0 C 95 % 1012,5 hPa 0,0 l/m 0,0 km/h (0 Bft) O 0,00 h 0,000 mm 0,0 UV-I 9 W/m 10,2 C 11,0 C 0,3 km/h (0 Bft)
25.07.2014 06:00 11,0 C 95 % 1012,6 hPa 0,0 l/m 0,0 km/h (0 Bft) N 0,00 h 0,000 mm 0,0 UV-I 26 W/m 10,3 C 11,0 C 0,1 km/h (0 Bft)
25.07.2014 07:00 12,7 C 95 % 1012,8 hPa 0,0 l/m 1,2 km/h (1 Bft) N 0,75 h 0,025 mm 0,5 UV-I 71 W/m 11,9 C 12,7 C 2,5 km/h (1 Bft)
25.07.2014 08:00 14,6 C 92 % 1012,8 hPa 0,0 l/m 1,0 km/h (0 Bft) NW 1,05 h 0,001 mm 1,2 UV-I 250 W/m 13,3 C 14,6 C 2,4 km/h (1 Bft)
25.07.2014 09:00 17,2 C 83 % 1012,8 hPa 0,0 l/m 2,2 km/h (1 Bft) NW 1,00 h 0,127 mm 2,7 UV-I 549 W/m 14,3 C 17,2 C 4,5 km/h (1 Bft)
25.07.2014 10:00 19,7 C 69 % 1012,8 hPa 0,0 l/m 1,9 km/h (1 Bft) N-NO 1,00 h 0,305 mm 4,0 UV-I 683 W/m 13,8 C 19,7 C 3,8 km/h (1 Bft)
25.07.2014 11:00 21,6 C 61 % 1012,8 hPa 0,0 l/m 3,2 km/h (1 Bft) W-SW 1,00 h 0,406 mm 5,2 UV-I 771 W/m 13,7 C 21,6 C 5,9 km/h (2 Bft)
25.07.2014 12:00 23,4 C 56 % 1012,4 hPa 0,0 l/m 5,2 km/h (1 Bft) W-NW 1,00 h 0,483 mm 6,1 UV-I 830 W/m 14,1 C 23,2 C 8,7 km/h (2 Bft)
25.07.2014 13:00 23,9 C 54 % 1012,1 hPa 0,0 l/m 4,5 km/h (1 Bft) S 1,00 h 0,533 mm 5,0 UV-I 581 W/m 13,9 C 23,7 C 8,1 km/h (2 Bft)
25.07.2014 14:00 24,3 C 52 % 1011,7 hPa 0,0 l/m 4,1 km/h (1 Bft) W-NW 1,00 h 0,381 mm 4,1 UV-I 525 W/m 13,7 C 24,2 C 7,2 km/h (2 Bft)
25.07.2014 15:00 25,7 C 46 % 1011,2 hPa 0,0 l/m 5,3 km/h (1 Bft) N-NO 1,00 h 0,356 mm 4,1 UV-I 647 W/m 13,3 C 25,6 C 8,8 km/h (2 Bft)
25.07.2014 16:00 24,1 C 51 % 1011,1 hPa 0,0 l/m 2,4 km/h (1 Bft) N-NO 1,00 h 0,457 mm 1,3 UV-I 164 W/m 13,4 C 24,1 C 4,7 km/h (1 Bft)
25.07.2014 17:00 22,9 C 56 % 1011,2 hPa 0,0 l/m 4,3 km/h (1 Bft) S 1,00 h 0,127 mm 1,0 UV-I 167 W/m 13,5 C 22,8 C 7,0 km/h (2 Bft)
25.07.2014 18:00 22,5 C 62 % 1011,1 hPa 0,0 l/m 3,2 km/h (1 Bft) O-SO 1,00 h 0,127 mm 0,9 UV-I 145 W/m 14,8 C 22,5 C 5,9 km/h (2 Bft)
25.07.2014 19:00 22,6 C 61 % 1011,1 hPa 0,0 l/m 3,5 km/h (1 Bft) S 0,62 h 0,102 mm 0,6 UV-I 78 W/m 14,5 C 22,6 C 5,6 km/h (1 Bft)
25.07.2014 20:00 22,1 C 61 % 1011,3 hPa 0,0 l/m 0,7 km/h (0 Bft) S 0,00 h 0,076 mm 0,0 UV-I 15 W/m 14,2 C 22,1 C 2,1 km/h (1 Bft)
25.07.2014 21:00 20,6 C 71 % 1011,6 hPa 0,0 l/m 1,0 km/h (0 Bft) O 0,00 h 0,025 mm 0,0 UV-I 0 W/m 15,1 C 20,6 C 2,5 km/h (1 Bft)
25.07.2014 22:00 18,4 C 83 % 1011,7 hPa 0,0 l/m 1,9 km/h (1 Bft) O 0,00 h 0,000 mm 0,0 UV-I 0 W/m 15,5 C 18,4 C 3,4 km/h (1 Bft)
25.07.2014 23:00 17,1 C 86 % 1012,2 hPa 0,0 l/m 0,6 km/h (0 Bft) O-NO 0,00 h 0,025 mm 0,0 UV-I 0 W/m 14,8 C 17,1 C 1,6 km/h (1 Bft)
26.07.2014 00:00 15,8 C 90 % 1012,2 hPa 0,0 l/m 1,0 km/h (0 Bft) O-NO 0,00 h 0,000 mm 0,0 UV-I 0 W/m 14,1 C 15,8 C 2,6 km/h (1 Bft)
26.07.2014 01:00 15,0 C 91 % 1012,2 hPa 0,0 l/m 0,3 km/h (0 Bft) O 0,00 h 0,000 mm 0,0 UV-I 0 W/m 13,5 C 15,0 C 1,0 km/h (0 Bft)
26.07.2014 02:00 14,6 C 92 % 1012,2 hPa 0,0 l/m 0,1 km/h (0 Bft) N 0,00 h 0,000 mm 0,0 UV-I 0 W/m 13,3 C 14,6 C 0,4 km/h (0 Bft)
26.07.2014 03:00 14,0 C 93 % 1012,1 hPa 0,0 l/m 0,1 km/h (0 Bft) N 0,00 h 0,000 mm 0,0 UV-I 0 W/m 12,8 C 14,0 C 0,4 km/h (0 Bft)
26.07.2014 04:00 13,4 C 94 % 1012,0 hPa 0,0 l/m 0,0 km/h (0 Bft) N 0,00 h 0,000 mm 0,0 UV-I 0 W/m 12,5 C 13,4 C 0,1 km/h (0 Bft)
26.07.2014 05:00 13,2 C 95 % 1012,1 hPa 0,0 l/m 0,1 km/h (0 Bft) N-NW 0,00 h 0,000 mm 0,0 UV-I 7 W/m 12,4 C 13,2 C 0,3 km/h (0 Bft)
26.07.2014 06:00 13,5 C 94 % 1012,1 hPa 0,0 l/m 0,0 km/h (0 Bft) N 0,00 h 0,000 mm 0,0 UV-I 34 W/m 12,5 C 13,5 C 0,0 km/h (0 Bft)
26.07.2014 07:00 15,1 C 92 % 1012,4 hPa 0,0 l/m 0,0 km/h (0 Bft) N 0,78 h 0,025 mm 0,7 UV-I 137 W/m 13,8 C 15,1 C 0,4 km/h (0 Bft)
26.07.2014 08:00 18,8 C 81 % 1012,4 hPa 0,0 l/m 2,5 km/h (1 Bft) SO 1,00 h 0,077 mm 1,2 UV-I 277 W/m 15,4 C 18,8 C 5,0 km/h (1 Bft)
26.07.2014 09:00 21,1 C 73 % 1012,3 hPa 0,0 l/m 2,8 km/h (1 Bft) O-NO 1,00 h 0,152 mm 2,3 UV-I 411 W/m 15,9 C 21,1 C 6,0 km/h (2 Bft)
26.07.2014 10:00 23,5 C 63 % 1011,9 hPa 0,0 l/m 4,2 km/h (1 Bft) O 1,00 h 0,254 mm 3,6 UV-I 590 W/m 16,1 C 23,4 C 8,4 km/h (2 Bft)
26.07.2014 11:00 24,7 C 55 % 1011,9 hPa 0,0 l/m 5,6 km/h (1 Bft) O 1,00 h 0,381 mm 4,7 UV-I 668 W/m 15,1 C 24,5 C 10,4 km/h (2 Bft)
26.07.2014 12:00 25,6 C 52 % 1011,7 hPa 0,0 l/m 6,1 km/h (2 Bft) SO 1,00 h 0,457 mm 5,3 UV-I 670 W/m 14,9 C 25,4 C 11,1 km/h (2 Bft)
26.07.2014 13:00 26,7 C 47 % 1011,1 hPa 0,0 l/m 6,5 km/h (2 Bft) SO 1,00 h 0,483 mm 6,3 UV-I 821 W/m 14,2 C 26,5 C 11,4 km/h (2 Bft)
26.07.2014 14:00 27,3 C 43 % 1010,9 hPa 0,0 l/m 7,7 km/h (2 Bft) SO 1,00 h 0,559 mm 5,8 UV-I 792 W/m 13,4 C 27,0 C 13,4 km/h (3 Bft)
26.07.2014 15:00 27,9 C 40 % 1010,4 hPa 0,0 l/m 8,0 km/h (2 Bft) O 1,00 h 0,584 mm 4,6 UV-I 698 W/m 12,8 C 27,6 C 13,6 km/h (3 Bft)
26.07.2014 16:00 26,9 C 40 % 1010,0 hPa 0,0 l/m 5,2 km/h (1 Bft) O-SO 1,00 h 0,508 mm 2,8 UV-I 442 W/m 12,2 C 26,8 C 9,7 km/h (2 Bft)
26.07.2014 17:00 26,2 C 44 % 1009,9 hPa 0,0 l/m 6,2 km/h (2 Bft) O 1,00 h 0,330 mm 1,5 UV-I 237 W/m 12,9 C 26,0 C 11,5 km/h (2 Bft)
26.07.2014 18:00 25,5 C 47 % 1010,1 hPa 0,0 l/m 2,5 km/h (1 Bft) O-NO 1,00 h 0,203 mm 0,7 UV-I 139 W/m 13,2 C 25,5 C 5,2 km/h (1 Bft)
26.07.2014 19:00 25,3 C 48 % 1009,9 hPa 0,0 l/m 3,9 km/h (1 Bft) N-NO 1,00 h 0,127 mm 0,5 UV-I 96 W/m 13,4 C 25,3 C 6,9 km/h (2 Bft)
26.07.2014 20:00 24,0 C 52 % 1010,3 hPa 0,0 l/m 3,8 km/h (1 Bft) N-NO 0,00 h 0,102 mm 0,0 UV-I 23 W/m 13,6 C 23,9 C 6,8 km/h (2 Bft)
26.07.2014 21:00 22,0 C 59 % 1010,9 hPa 0,0 l/m 1,7 km/h (1 Bft) N-NO 0,00 h 0,051 mm 0,0 UV-I 0 W/m 13,7 C 22,0 C 3,6 km/h (1 Bft)
26.07.2014 22:00 20,5 C 66 % 1011,3 hPa 0,0 l/m 5,0 km/h (1 Bft) N 0,00 h 0,025 mm 0,0 UV-I 0 W/m 13,9 C 20,4 C 7,7 km/h (2 Bft)
26.07.2014 23:00 19,3 C 72 % 1011,4 hPa 0,0 l/m 0,7 km/h (0 Bft) NW 0,00 h 0,051 mm 0,0 UV-I 0 W/m 14,1 C 19,3 C 1,9 km/h (1 Bft)
27.07.2014 00:00 18,6 C 76 % 1011,6 hPa 0,0 l/m 1,9 km/h (1 Bft) N-NW 0,00 h 0,025 mm 0,0 UV-I 0 W/m 14,2 C 18,6 C 3,8 km/h (1 Bft)
27.07.2014 01:00 17,9 C 80 % 1011,5 hPa 0,0 l/m 2,8 km/h (1 Bft) N 0,00 h 0,025 mm 0,0 UV-I 0 W/m 14,4 C 17,9 C 5,0 km/h (1 Bft)
27.07.2014 02:00 17,1 C 83 % 1011,4 hPa 0,0 l/m 0,5 km/h (0 Bft) N 0,00 h 0,025 mm 0,0 UV-I 0 W/m 14,2 C 17,1 C 1,7 km/h (1 Bft)
27.07.2014 03:00 16,3 C 86 % 1011,4 hPa 0,0 l/m 0,5 km/h (0 Bft) N 0,00 h 0,025 mm 0,0 UV-I 0 W/m 14,0 C 16,3 C 1,4 km/h (1 Bft)
27.07.2014 04:00 15,7 C 88 % 1011,6 hPa 0,0 l/m 0,8 km/h (0 Bft) N 0,00 h 0,000 mm 0,0 UV-I 0 W/m 13,8 C 15,7 C 2,0 km/h (1 Bft)
27.07.2014 05:00 15,1 C 90 % 1011,7 hPa 0,0 l/m 0,4 km/h (0 Bft) N 0,00 h 0,000 mm 0,0 UV-I 9 W/m 13,5 C 15,1 C 0,9 km/h (0 Bft)
27.07.2014 06:00 15,3 C 91 % 1011,9 hPa 0,0 l/m 1,0 km/h (0 Bft) N 0,23 h 0,000 mm 0,0 UV-I 37 W/m 13,8 C 15,3 C 1,9 km/h (1 Bft)
27.07.2014 07:00 17,1 C 86 % 1012,3 hPa 0,0 l/m 1,2 km/h (1 Bft) N 1,00 h 0,025 mm 0,6 UV-I 99 W/m 14,9 C 17,1 C 2,2 km/h (1 Bft)
27.07.2014 08:00 19,2 C 83 % 1012,5 hPa 0,0 l/m 0,6 km/h (0 Bft) O 1,00 h 0,051 mm 1,2 UV-I 227 W/m 16,2 C 19,2 C 1,5 km/h (1 Bft)
27.07.2014 09:00 22,8 C 71 % 1012,4 hPa 0,0 l/m 2,5 km/h (1 Bft) O 1,00 h 0,127 mm 2,5 UV-I 489 W/m 17,1 C 22,7 C 5,3 km/h (1 Bft)
27.07.2014 10:00 24,2 C 65 % 1012,3 hPa 0,0 l/m 2,8 km/h (1 Bft) O-NO 1,00 h 0,305 mm 3,8 UV-I 604 W/m 17,2 C 24,2 C 5,7 km/h (1 Bft)
27.07.2014 11:00 25,3 C 58 % 1012,4 hPa 0,0 l/m 4,6 km/h (1 Bft) SO 1,00 h 0,381 mm 5,1 UV-I 709 W/m 16,3 C 25,2 C 8,0 km/h (2 Bft)
27.07.2014 12:00 25,7 C 55 % 1012,4 hPa 0,0 l/m 3,7 km/h (1 Bft) S-SO 1,00 h 0,483 mm 4,1 UV-I 461 W/m 15,9 C 25,6 C 6,5 km/h (2 Bft)
27.07.2014 13:00 26,3 C 55 % 1012,0 hPa 0,0 l/m 4,8 km/h (1 Bft) W-SW 1,00 h 0,305 mm 4,6 UV-I 575 W/m 16,6 C 26,2 C 8,2 km/h (2 Bft)
27.07.2014 14:00 24,1 C 70 % 1011,8 hPa 0,8 l/m 2,7 km/h (1 Bft) S 1,00 h 0,406 mm 2,1 UV-I 217 W/m 18,2 C 24,1 C 4,8 km/h (1 Bft)
27.07.2014 15:00 22,1 C 79 % 1011,9 hPa 0,4 l/m 3,3 km/h (1 Bft) S-SO 1,00 h 0,152 mm 1,4 UV-I 204 W/m 18,3 C 22,1 C 5,7 km/h (1 Bft)
27.07.2014 16:00 22,2 C 78 % 1011,9 hPa 0,0 l/m 5,1 km/h (1 Bft) O 1,00 h 0,127 mm 1,6 UV-I 211 W/m 18,2 C 22,0 C 9,0 km/h (2 Bft)
27.07.2014 17:00 21,5 C 78 % 1011,9 hPa 0,0 l/m 2,4 km/h (1 Bft) S 0,87 h 0,152 mm 0,6 UV-I 69 W/m 17,5 C 21,5 C 4,2 km/h (1 Bft)
27.07.2014 18:00 20,8 C 84 % 1012,4 hPa 0,8 l/m 2,5 km/h (1 Bft) S 0,00 h 0,051 mm 0,0 UV-I 30 W/m 18,0 C 20,7 C 4,4 km/h (1 Bft)
27.07.2014 19:00 19,6 C 91 % 1012,8 hPa 0,4 l/m 6,7 km/h (2 Bft) N 0,38 h 0,025 mm 0,0 UV-I 47 W/m 18,0 C 19,1 C 9,8 km/h (2 Bft)
27.07.2014 20:00 18,7 C 93 % 1013,3 hPa 0,0 l/m 2,6 km/h (1 Bft) N-NW 0,00 h 0,025 mm 0,0 UV-I 18 W/m 17,5 C 18,7 C 4,8 km/h (1 Bft)
27.07.2014 21:00 17,8 C 93 % 1013,6 hPa 0,0 l/m 1,7 km/h (1 Bft) N 0,00 h 0,025 mm 0,0 UV-I 0 W/m 16,6 C 17,8 C 3,4 km/h (1 Bft)
27.07.2014 22:00 17,0 C 94 % 1013,7 hPa 0,0 l/m 0,7 km/h (0 Bft) N-NW 0,00 h 0,000 mm 0,0 UV-I 0 W/m 16,0 C 17,0 C 1,5 km/h (1 Bft)
27.07.2014 23:00 16,3 C 95 % 1013,4 hPa 0,0 l/m 0,0 km/h (0 Bft) N 0,00 h 0,000 mm 0,0 UV-I 0 W/m 15,5 C 16,3 C 0,3 km/h (0 Bft)
Min-Datum _ 25.07.14 23.07.14 21.07.14 - 21.07.14 - - - - - 23.07.14 25.07.14 21.07.14
_ Min-Zeit 06:14 15:04 03:24 - 00:00 - - - - - 15:04 06:15 00:02
Minimum _ 10,7 C 33 % 1006,1 hPa - 0,0 km/h (0 Bft) - - - - - 9,5 C 10,7 C 0,0 km/h (0 Bft)
Max-Datum _ 26.07.14 22.07.14 23.07.14 21.07.14 22.07.14 - 25.07.14 24.07.14 21.07.14 23.07.14 27.07.14 26.07.14 23.07.14
_ Max-Zeit 15:12 07:30 06:35 10:42 17:51 - 08:02 15:00 14:08 12:36 14:48 15:12 13:55
Maximum _ 28,4 C 97 % 1015,5 hPa 16,8 l/m 22,5 km/h
NO (4 Bft)
- 0,10 h 0,686 mm 7,3 UV-I 1074 W/m 20,8 C 28,4 C 40,2 km/h
N-NO (6 Bft)
Durchschnitt _ 20,0 C 74 % 1011,6 hPa #31,6 l/m 4,2 km/h (1 Bft) N-NO #84:25 h #26,436 mm 2,8 UV-I 319 W/m 14,6 C 19,8 C 7,1 km/h (2 Bft)